sensor_id;sensor_type;location;lat;lon;timestamp;P1;durP1;ratioP1;P2;durP2;ratioP2
16199;SDS011;8207;52.494;4.654;2023-04-03T00:00:10;4.27;;;2.47;;
16199;SDS011;8207;52.494;4.654;2023-04-03T00:02:37;2.90;;;1.63;;
16199;SDS011;8207;52.494;4.654;2023-04-03T00:05:05;2.20;;;1.43;;
16199;SDS011;8207;52.494;4.654;2023-04-03T00:07:35;6.40;;;2.80;;
16199;SDS011;8207;52.494;4.654;2023-04-03T00:10:02;5.47;;;2.00;;
16199;SDS011;8207;52.494;4.654;2023-04-03T00:12:29;2.20;;;1.50;;
16199;SDS011;8207;52.494;4.654;2023-04-03T00:14:56;1.73;;;1.57;;
16199;SDS011;8207;52.494;4.654;2023-04-03T00:17:23;4.57;;;1.90;;
16199;SDS011;8207;52.494;4.654;2023-04-03T00:19:50;2.80;;;1.90;;
16199;SDS011;8207;52.494;4.654;2023-04-03T00:22:17;2.47;;;1.87;;
16199;SDS011;8207;52.494;4.654;2023-04-03T00:24:45;2.43;;;1.30;;
16199;SDS011;8207;52.494;4.654;2023-04-03T00:27:12;4.33;;;1.53;;
16199;SDS011;8207;52.494;4.654;2023-04-03T00:29:40;5.50;;;1.57;;
16199;SDS011;8207;52.494;4.654;2023-04-03T00:32:07;3.40;;;1.60;;
16199;SDS011;8207;52.494;4.654;2023-04-03T00:34:35;2.40;;;1.57;;
16199;SDS011;8207;52.494;4.654;2023-04-03T00:37:01;2.50;;;1.87;;
16199;SDS011;8207;52.494;4.654;2023-04-03T00:39:28;3.17;;;1.70;;
16199;SDS011;8207;52.494;4.654;2023-04-03T00:41:57;1.70;;;1.20;;
16199;SDS011;8207;52.494;4.654;2023-04-03T00:47:25;3.23;;;1.60;;
16199;SDS011;8207;52.494;4.654;2023-04-03T00:49:53;3.93;;;1.70;;
16199;SDS011;8207;52.494;4.654;2023-04-03T00:52:21;2.03;;;1.60;;
16199;SDS011;8207;52.494;4.654;2023-04-03T00:54:53;3.40;;;1.60;;
16199;SDS011;8207;52.494;4.654;2023-04-03T00:57:24;2.70;;;1.67;;
16199;SDS011;8207;52.494;4.654;2023-04-03T00:59:52;2.07;;;1.50;;
16199;SDS011;8207;52.494;4.654;2023-04-03T01:02:23;2.73;;;1.80;;
16199;SDS011;8207;52.494;4.654;2023-04-03T01:04:51;2.40;;;1.67;;
16199;SDS011;8207;52.494;4.654;2023-04-03T01:07:18;3.83;;;1.67;;
16199;SDS011;8207;52.494;4.654;2023-04-03T01:09:51;2.33;;;1.40;;
16199;SDS011;8207;52.494;4.654;2023-04-03T01:12:22;2.03;;;1.40;;
16199;SDS011;8207;52.494;4.654;2023-04-03T01:14:52;3.17;;;1.87;;
16199;SDS011;8207;52.494;4.654;2023-04-03T01:17:26;3.50;;;1.83;;
16199;SDS011;8207;52.494;4.654;2023-04-03T01:19:57;1.90;;;1.50;;
16199;SDS011;8207;52.494;4.654;2023-04-03T01:22:56;1.93;;;1.50;;
16199;SDS011;8207;52.494;4.654;2023-04-03T01:25:29;3.27;;;1.53;;
16199;SDS011;8207;52.494;4.654;2023-04-03T01:27:57;1.70;;;1.50;;
16199;SDS011;8207;52.494;4.654;2023-04-03T01:30:25;2.33;;;1.40;;
16199;SDS011;8207;52.494;4.654;2023-04-03T01:32:58;2.30;;;1.57;;
16199;SDS011;8207;52.494;4.654;2023-04-03T01:35:25;4.93;;;1.90;;
16199;SDS011;8207;52.494;4.654;2023-04-03T01:37:52;2.53;;;1.70;;
16199;SDS011;8207;52.494;4.654;2023-04-03T01:40:19;4.37;;;2.20;;
16199;SDS011;8207;52.494;4.654;2023-04-03T01:42:46;2.87;;;2.00;;
16199;SDS011;8207;52.494;4.654;2023-04-03T01:45:13;4.20;;;1.90;;
16199;SDS011;8207;52.494;4.654;2023-04-03T01:47:40;1.93;;;1.60;;
16199;SDS011;8207;52.494;4.654;2023-04-03T01:50:08;3.47;;;1.77;;
16199;SDS011;8207;52.494;4.654;2023-04-03T01:52:35;2.97;;;1.60;;
16199;SDS011;8207;52.494;4.654;2023-04-03T01:55:02;3.30;;;1.60;;
16199;SDS011;8207;52.494;4.654;2023-04-03T01:57:30;4.37;;;1.73;;
16199;SDS011;8207;52.494;4.654;2023-04-03T01:59:57;3.20;;;1.90;;
16199;SDS011;8207;52.494;4.654;2023-04-03T02:02:24;3.03;;;1.70;;
16199;SDS011;8207;52.494;4.654;2023-04-03T02:04:51;3.50;;;1.70;;
16199;SDS011;8207;52.494;4.654;2023-04-03T02:07:19;2.60;;;1.63;;
16199;SDS011;8207;52.494;4.654;2023-04-03T02:09:47;3.07;;;1.80;;
16199;SDS011;8207;52.494;4.654;2023-04-03T02:12:14;1.90;;;1.50;;
16199;SDS011;8207;52.494;4.654;2023-04-03T02:14:41;3.93;;;1.83;;
16199;SDS011;8207;52.494;4.654;2023-04-03T02:17:08;3.57;;;1.57;;
16199;SDS011;8207;52.494;4.654;2023-04-03T02:19:35;3.43;;;1.70;;
16199;SDS011;8207;52.494;4.654;2023-04-03T02:22:02;2.13;;;1.57;;
16199;SDS011;8207;52.494;4.654;2023-04-03T02:24:30;5.77;;;1.87;;
16199;SDS011;8207;52.494;4.654;2023-04-03T02:26:57;4.90;;;2.50;;
16199;SDS011;8207;52.494;4.654;2023-04-03T02:29:24;3.23;;;1.73;;
16199;SDS011;8207;52.494;4.654;2023-04-03T02:31:51;4.33;;;2.23;;
16199;SDS011;8207;52.494;4.654;2023-04-03T02:34:18;3.00;;;1.80;;
16199;SDS011;8207;52.494;4.654;2023-04-03T02:36:45;3.17;;;1.40;;
16199;SDS011;8207;52.494;4.654;2023-04-03T02:39:12;2.03;;;1.53;;
16199;SDS011;8207;52.494;4.654;2023-04-03T02:41:41;2.67;;;1.30;;
16199;SDS011;8207;52.494;4.654;2023-04-03T02:44:09;3.40;;;1.30;;
16199;SDS011;8207;52.494;4.654;2023-04-03T02:46:36;3.07;;;2.20;;
16199;SDS011;8207;52.494;4.654;2023-04-03T02:49:03;3.17;;;1.87;;
16199;SDS011;8207;52.494;4.654;2023-04-03T02:51:30;3.93;;;2.03;;
16199;SDS011;8207;52.494;4.654;2023-04-03T02:53:57;4.27;;;2.40;;
16199;SDS011;8207;52.494;4.654;2023-04-03T02:56:25;5.30;;;2.67;;
16199;SDS011;8207;52.494;4.654;2023-04-03T02:58:53;5.87;;;2.60;;
16199;SDS011;8207;52.494;4.654;2023-04-03T03:01:20;6.43;;;2.43;;
16199;SDS011;8207;52.494;4.654;2023-04-03T03:03:47;4.23;;;2.07;;
16199;SDS011;8207;52.494;4.654;2023-04-03T03:06:15;3.47;;;1.87;;
16199;SDS011;8207;52.494;4.654;2023-04-03T03:08:43;2.67;;;2.27;;
16199;SDS011;8207;52.494;4.654;2023-04-03T03:11:10;5.30;;;2.30;;
16199;SDS011;8207;52.494;4.654;2023-04-03T03:13:37;5.30;;;2.00;;
16199;SDS011;8207;52.494;4.654;2023-04-03T03:16:06;5.40;;;2.20;;
16199;SDS011;8207;52.494;4.654;2023-04-03T03:18:33;5.67;;;1.80;;
16199;SDS011;8207;52.494;4.654;2023-04-03T03:21:01;5.07;;;1.90;;
16199;SDS011;8207;52.494;4.654;2023-04-03T03:23:29;2.00;;;1.60;;
16199;SDS011;8207;52.494;4.654;2023-04-03T03:25:57;4.67;;;2.03;;
16199;SDS011;8207;52.494;4.654;2023-04-03T03:28:25;6.13;;;2.23;;
16199;SDS011;8207;52.494;4.654;2023-04-03T03:30:52;5.13;;;2.17;;
16199;SDS011;8207;52.494;4.654;2023-04-03T03:33:21;6.53;;;2.10;;
16199;SDS011;8207;52.494;4.654;2023-04-03T03:35:48;5.63;;;2.37;;
16199;SDS011;8207;52.494;4.654;2023-04-03T03:38:15;6.93;;;2.40;;
16199;SDS011;8207;52.494;4.654;2023-04-03T03:40:42;3.60;;;2.00;;
16199;SDS011;8207;52.494;4.654;2023-04-03T03:43:09;8.17;;;2.60;;
16199;SDS011;8207;52.494;4.654;2023-04-03T03:45:36;5.10;;;3.10;;
16199;SDS011;8207;52.494;4.654;2023-04-03T03:48:03;5.97;;;3.30;;
16199;SDS011;8207;52.494;4.654;2023-04-03T03:50:32;3.53;;;1.97;;
16199;SDS011;8207;52.494;4.654;2023-04-03T03:52:59;8.63;;;2.37;;
16199;SDS011;8207;52.494;4.654;2023-04-03T03:55:26;6.97;;;2.47;;
16199;SDS011;8207;52.494;4.654;2023-04-03T03:57:53;6.30;;;2.70;;
16199;SDS011;8207;52.494;4.654;2023-04-03T04:00:20;4.17;;;2.23;;
16199;SDS011;8207;52.494;4.654;2023-04-03T04:02:47;3.47;;;2.20;;
16199;SDS011;8207;52.494;4.654;2023-04-03T04:05:14;7.07;;;2.67;;
16199;SDS011;8207;52.494;4.654;2023-04-03T04:07:42;3.67;;;2.17;;
16199;SDS011;8207;52.494;4.654;2023-04-03T04:10:09;4.93;;;2.50;;
16199;SDS011;8207;52.494;4.654;2023-04-03T04:12:38;4.80;;;2.40;;
16199;SDS011;8207;52.494;4.654;2023-04-03T04:15:05;7.10;;;3.10;;
16199;SDS011;8207;52.494;4.654;2023-04-03T04:17:33;5.47;;;2.47;;
16199;SDS011;8207;52.494;4.654;2023-04-03T04:20:01;6.00;;;2.20;;
16199;SDS011;8207;52.494;4.654;2023-04-03T04:22:30;5.80;;;2.30;;
16199;SDS011;8207;52.494;4.654;2023-04-03T04:24:58;4.73;;;2.30;;
16199;SDS011;8207;52.494;4.654;2023-04-03T04:27:25;6.40;;;2.30;;
16199;SDS011;8207;52.494;4.654;2023-04-03T04:29:52;9.90;;;3.60;;
16199;SDS011;8207;52.494;4.654;2023-04-03T04:32:19;4.20;;;2.80;;
16199;SDS011;8207;52.494;4.654;2023-04-03T04:34:46;3.13;;;2.20;;
16199;SDS011;8207;52.494;4.654;2023-04-03T04:37:13;4.17;;;2.33;;
16199;SDS011;8207;52.494;4.654;2023-04-03T04:39:40;5.77;;;2.80;;
16199;SDS011;8207;52.494;4.654;2023-04-03T04:42:08;6.93;;;2.90;;
16199;SDS011;8207;52.494;4.654;2023-04-03T04:44:37;4.50;;;2.63;;
16199;SDS011;8207;52.494;4.654;2023-04-03T04:47:04;6.33;;;2.53;;
16199;SDS011;8207;52.494;4.654;2023-04-03T04:49:31;5.57;;;2.93;;
16199;SDS011;8207;52.494;4.654;2023-04-03T04:51:58;5.73;;;2.70;;
16199;SDS011;8207;52.494;4.654;2023-04-03T04:54:25;5.03;;;2.30;;
16199;SDS011;8207;52.494;4.654;2023-04-03T04:56:52;4.63;;;2.47;;
16199;SDS011;8207;52.494;4.654;2023-04-03T04:59:20;2.87;;;1.97;;
16199;SDS011;8207;52.494;4.654;2023-04-03T05:01:47;4.83;;;2.67;;
16199;SDS011;8207;52.494;4.654;2023-04-03T05:04:15;5.23;;;3.00;;
16199;SDS011;8207;52.494;4.654;2023-04-03T05:06:42;11.57;;;3.67;;
16199;SDS011;8207;52.494;4.654;2023-04-03T05:09:09;6.13;;;2.90;;
16199;SDS011;8207;52.494;4.654;2023-04-03T05:11:36;4.90;;;3.50;;
16199;SDS011;8207;52.494;4.654;2023-04-03T05:14:02;4.33;;;2.97;;
16199;SDS011;8207;52.494;4.654;2023-04-03T05:16:32;8.30;;;3.17;;
16199;SDS011;8207;52.494;4.654;2023-04-03T05:18:59;4.50;;;2.60;;
16199;SDS011;8207;52.494;4.654;2023-04-03T05:21:27;5.53;;;2.50;;
16199;SDS011;8207;52.494;4.654;2023-04-03T05:23:57;8.70;;;2.60;;
16199;SDS011;8207;52.494;4.654;2023-04-03T05:26:24;7.53;;;2.77;;
16199;SDS011;8207;52.494;4.654;2023-04-03T05:28:51;4.30;;;2.60;;
16199;SDS011;8207;52.494;4.654;2023-04-03T05:31:18;3.93;;;2.70;;
16199;SDS011;8207;52.494;4.654;2023-04-03T05:33:47;5.33;;;2.80;;
16199;SDS011;8207;52.494;4.654;2023-04-03T05:36:14;7.43;;;3.27;;
16199;SDS011;8207;52.494;4.654;2023-04-03T05:38:41;4.80;;;2.73;;
16199;SDS011;8207;52.494;4.654;2023-04-03T05:41:08;4.97;;;3.70;;
16199;SDS011;8207;52.494;4.654;2023-04-03T05:43:35;5.20;;;2.90;;
16199;SDS011;8207;52.494;4.654;2023-04-03T05:46:03;3.93;;;2.90;;
16199;SDS011;8207;52.494;4.654;2023-04-03T05:48:34;9.00;;;2.87;;
16199;SDS011;8207;52.494;4.654;2023-04-03T05:51:03;6.53;;;3.50;;
16199;SDS011;8207;52.494;4.654;2023-04-03T05:53:31;7.33;;;2.97;;
16199;SDS011;8207;52.494;4.654;2023-04-03T05:56:01;6.37;;;3.07;;
16199;SDS011;8207;52.494;4.654;2023-04-03T05:58:28;6.53;;;3.33;;
16199;SDS011;8207;52.494;4.654;2023-04-03T06:00:55;3.93;;;3.03;;
16199;SDS011;8207;52.494;4.654;2023-04-03T06:03:22;4.80;;;2.80;;
16199;SDS011;8207;52.494;4.654;2023-04-03T06:05:49;3.90;;;2.43;;
16199;SDS011;8207;52.494;4.654;2023-04-03T06:08:18;7.13;;;2.67;;
16199;SDS011;8207;52.494;4.654;2023-04-03T06:10:45;7.90;;;3.00;;
16199;SDS011;8207;52.494;4.654;2023-04-03T06:13:12;6.07;;;3.00;;
16199;SDS011;8207;52.494;4.654;2023-04-03T06:15:40;4.73;;;2.43;;
16199;SDS011;8207;52.494;4.654;2023-04-03T06:18:07;3.17;;;2.37;;
16199;SDS011;8207;52.494;4.654;2023-04-03T06:20:34;4.73;;;2.60;;
16199;SDS011;8207;52.494;4.654;2023-04-03T06:23:01;6.07;;;3.43;;
16199;SDS011;8207;52.494;4.654;2023-04-03T06:25:30;7.47;;;2.97;;
16199;SDS011;8207;52.494;4.654;2023-04-03T06:27:58;6.50;;;2.77;;
16199;SDS011;8207;52.494;4.654;2023-04-03T06:30:27;3.13;;;2.20;;
16199;SDS011;8207;52.494;4.654;2023-04-03T06:32:54;4.93;;;2.77;;
16199;SDS011;8207;52.494;4.654;2023-04-03T06:35:21;7.67;;;2.77;;
16199;SDS011;8207;52.494;4.654;2023-04-03T06:37:50;3.73;;;2.87;;
16199;SDS011;8207;52.494;4.654;2023-04-03T06:40:18;7.43;;;2.77;;
16199;SDS011;8207;52.494;4.654;2023-04-03T06:45:23;4.10;;;2.50;;
16199;SDS011;8207;52.494;4.654;2023-04-03T06:47:50;4.70;;;2.10;;
16199;SDS011;8207;52.494;4.654;2023-04-03T06:50:17;3.77;;;2.40;;
16199;SDS011;8207;52.494;4.654;2023-04-03T06:52:44;5.47;;;2.53;;
16199;SDS011;8207;52.494;4.654;2023-04-03T06:55:11;3.33;;;2.40;;
16199;SDS011;8207;52.494;4.654;2023-04-03T06:57:38;7.83;;;2.43;;
16199;SDS011;8207;52.494;4.654;2023-04-03T07:00:07;6.67;;;2.43;;
16199;SDS011;8207;52.494;4.654;2023-04-03T07:02:35;4.37;;;2.50;;
16199;SDS011;8207;52.494;4.654;2023-04-03T07:05:03;8.03;;;2.57;;
16199;SDS011;8207;52.494;4.654;2023-04-03T07:07:31;5.80;;;2.37;;
16199;SDS011;8207;52.494;4.654;2023-04-03T07:09:59;7.10;;;3.73;;
16199;SDS011;8207;52.494;4.654;2023-04-03T07:12:32;6.60;;;2.93;;
16199;SDS011;8207;52.494;4.654;2023-04-03T07:15:01;9.10;;;3.00;;
16199;SDS011;8207;52.494;4.654;2023-04-03T07:17:30;3.83;;;2.10;;
16199;SDS011;8207;52.494;4.654;2023-04-03T07:19:57;7.13;;;2.10;;
16199;SDS011;8207;52.494;4.654;2023-04-03T07:22:24;5.67;;;2.30;;
16199;SDS011;8207;52.494;4.654;2023-04-03T07:24:51;5.97;;;2.10;;
16199;SDS011;8207;52.494;4.654;2023-04-03T07:27:18;2.93;;;2.30;;
16199;SDS011;8207;52.494;4.654;2023-04-03T07:29:45;4.73;;;2.10;;
16199;SDS011;8207;52.494;4.654;2023-04-03T07:32:13;3.70;;;1.77;;
16199;SDS011;8207;52.494;4.654;2023-04-03T07:34:41;5.07;;;1.93;;
16199;SDS011;8207;52.494;4.654;2023-04-03T07:37:08;8.77;;;2.30;;
16199;SDS011;8207;52.494;4.654;2023-04-03T07:39:36;4.63;;;2.63;;
16199;SDS011;8207;52.494;4.654;2023-04-03T07:42:02;8.83;;;3.90;;
16199;SDS011;8207;52.494;4.654;2023-04-03T07:44:29;4.77;;;1.80;;
16199;SDS011;8207;52.494;4.654;2023-04-03T07:46:57;5.43;;;1.80;;
16199;SDS011;8207;52.494;4.654;2023-04-03T07:49:24;3.37;;;1.87;;
16199;SDS011;8207;52.494;4.654;2023-04-03T07:51:53;3.73;;;2.40;;
16199;SDS011;8207;52.494;4.654;2023-04-03T07:54:20;4.93;;;2.00;;
16199;SDS011;8207;52.494;4.654;2023-04-03T07:56:47;6.33;;;2.20;;
16199;SDS011;8207;52.494;4.654;2023-04-03T07:59:14;6.67;;;2.00;;
16199;SDS011;8207;52.494;4.654;2023-04-03T08:01:41;3.27;;;2.00;;
16199;SDS011;8207;52.494;4.654;2023-04-03T08:04:08;8.83;;;2.20;;
16199;SDS011;8207;52.494;4.654;2023-04-03T08:06:35;6.43;;;2.77;;
16199;SDS011;8207;52.494;4.654;2023-04-03T08:09:04;3.50;;;1.83;;
16199;SDS011;8207;52.494;4.654;2023-04-03T08:11:31;3.37;;;1.90;;
16199;SDS011;8207;52.494;4.654;2023-04-03T08:13:58;3.37;;;2.17;;
16199;SDS011;8207;52.494;4.654;2023-04-03T08:16:25;4.27;;;1.73;;
16199;SDS011;8207;52.494;4.654;2023-04-03T08:18:52;3.60;;;1.70;;
16199;SDS011;8207;52.494;4.654;2023-04-03T08:21:20;3.20;;;1.70;;
16199;SDS011;8207;52.494;4.654;2023-04-03T08:23:48;3.30;;;2.13;;
16199;SDS011;8207;52.494;4.654;2023-04-03T08:26:18;4.37;;;1.80;;
16199;SDS011;8207;52.494;4.654;2023-04-03T08:28:46;3.43;;;1.70;;
16199;SDS011;8207;52.494;4.654;2023-04-03T08:31:14;4.30;;;1.77;;
16199;SDS011;8207;52.494;4.654;2023-04-03T08:33:43;5.20;;;1.87;;
16199;SDS011;8207;52.494;4.654;2023-04-03T08:36:16;3.73;;;1.63;;
16199;SDS011;8207;52.494;4.654;2023-04-03T08:38:45;5.40;;;1.60;;
16199;SDS011;8207;52.494;4.654;2023-04-03T08:41:13;2.67;;;1.80;;
16199;SDS011;8207;52.494;4.654;2023-04-03T08:43:49;5.30;;;1.80;;
16199;SDS011;8207;52.494;4.654;2023-04-03T08:46:24;1.93;;;1.30;;
16199;SDS011;8207;52.494;4.654;2023-04-03T08:48:59;3.00;;;1.50;;
16199;SDS011;8207;52.494;4.654;2023-04-03T08:51:29;4.20;;;1.50;;
16199;SDS011;8207;52.494;4.654;2023-04-03T08:53:58;2.17;;;1.00;;
16199;SDS011;8207;52.494;4.654;2023-04-03T08:56:30;1.90;;;1.20;;
16199;SDS011;8207;52.494;4.654;2023-04-03T08:59:05;4.17;;;2.20;;
16199;SDS011;8207;52.494;4.654;2023-04-03T09:01:40;2.43;;;1.47;;
16199;SDS011;8207;52.494;4.654;2023-04-03T09:04:09;4.43;;;1.30;;
16199;SDS011;8207;52.494;4.654;2023-04-03T09:06:39;4.10;;;1.93;;
16199;SDS011;8207;52.494;4.654;2023-04-03T09:09:11;2.17;;;1.13;;
16199;SDS011;8207;52.494;4.654;2023-04-03T09:11:44;3.47;;;1.60;;
16199;SDS011;8207;52.494;4.654;2023-04-03T09:14:24;3.30;;;1.10;;
16199;SDS011;8207;52.494;4.654;2023-04-03T09:16:58;5.23;;;1.33;;
16199;SDS011;8207;52.494;4.654;2023-04-03T09:19:29;2.37;;;1.23;;
16199;SDS011;8207;52.494;4.654;2023-04-03T09:22:03;2.20;;;0.93;;
16199;SDS011;8207;52.494;4.654;2023-04-03T09:24:37;1.40;;;1.00;;
16199;SDS011;8207;52.494;4.654;2023-04-03T09:27:06;2.30;;;1.13;;
16199;SDS011;8207;52.494;4.654;2023-04-03T09:29:37;3.00;;;1.30;;
16199;SDS011;8207;52.494;4.654;2023-04-03T09:32:18;3.90;;;1.20;;
16199;SDS011;8207;52.494;4.654;2023-04-03T09:34:48;1.90;;;0.90;;
16199;SDS011;8207;52.494;4.654;2023-04-03T09:37:33;1.13;;;1.03;;
16199;SDS011;8207;52.494;4.654;2023-04-03T09:40:11;2.23;;;1.13;;
16199;SDS011;8207;52.494;4.654;2023-04-03T09:42:59;2.40;;;1.40;;
16199;SDS011;8207;52.494;4.654;2023-04-03T09:45:29;2.53;;;1.00;;
16199;SDS011;8207;52.494;4.654;2023-04-03T09:48:07;1.90;;;0.80;;
16199;SDS011;8207;52.494;4.654;2023-04-03T09:50:52;2.33;;;1.10;;
16199;SDS011;8207;52.494;4.654;2023-04-03T09:53:31;1.63;;;1.00;;
16199;SDS011;8207;52.494;4.654;2023-04-03T09:56:02;1.83;;;1.00;;
16199;SDS011;8207;52.494;4.654;2023-04-03T09:58:31;4.20;;;1.27;;
16199;SDS011;8207;52.494;4.654;2023-04-03T10:01:01;3.10;;;1.27;;
16199;SDS011;8207;52.494;4.654;2023-04-03T10:03:29;2.37;;;1.20;;
16199;SDS011;8207;52.494;4.654;2023-04-03T10:05:58;1.77;;;0.93;;
16199;SDS011;8207;52.494;4.654;2023-04-03T10:08:26;3.40;;;1.30;;
16199;SDS011;8207;52.494;4.654;2023-04-03T10:11:07;1.90;;;0.93;;
16199;SDS011;8207;52.494;4.654;2023-04-03T10:13:51;2.93;;;1.03;;
16199;SDS011;8207;52.494;4.654;2023-04-03T10:16:21;2.40;;;1.10;;
16199;SDS011;8207;52.494;4.654;2023-04-03T10:18:54;2.73;;;1.00;;
16199;SDS011;8207;52.494;4.654;2023-04-03T10:21:31;3.33;;;1.07;;
16199;SDS011;8207;52.494;4.654;2023-04-03T10:24:07;1.87;;;0.90;;
16199;SDS011;8207;52.494;4.654;2023-04-03T10:26:41;5.83;;;1.00;;
16199;SDS011;8207;52.494;4.654;2023-04-03T10:29:16;1.97;;;1.00;;
16199;SDS011;8207;52.494;4.654;2023-04-03T10:31:59;2.53;;;1.17;;
16199;SDS011;8207;52.494;4.654;2023-04-03T10:34:40;3.07;;;1.10;;
16199;SDS011;8207;52.494;4.654;2023-04-03T10:37:13;2.33;;;1.20;;
16199;SDS011;8207;52.494;4.654;2023-04-03T10:39:50;2.57;;;1.17;;
16199;SDS011;8207;52.494;4.654;2023-04-03T10:42:27;1.90;;;0.87;;
16199;SDS011;8207;52.494;4.654;2023-04-03T10:45:15;3.67;;;0.90;;
16199;SDS011;8207;52.494;4.654;2023-04-03T10:47:52;4.57;;;1.20;;
16199;SDS011;8207;52.494;4.654;2023-04-03T10:50:35;4.83;;;1.23;;
16199;SDS011;8207;52.494;4.654;2023-04-03T10:53:11;2.70;;;1.10;;
16199;SDS011;8207;52.494;4.654;2023-04-03T10:55:48;1.40;;;0.80;;
16199;SDS011;8207;52.494;4.654;2023-04-03T10:58:30;5.63;;;1.07;;
16199;SDS011;8207;52.494;4.654;2023-04-03T11:01:01;2.33;;;0.83;;
16199;SDS011;8207;52.494;4.654;2023-04-03T11:03:35;1.77;;;0.93;;
16199;SDS011;8207;52.494;4.654;2023-04-03T11:06:07;1.70;;;1.00;;
16199;SDS011;8207;52.494;4.654;2023-04-03T11:08:37;3.27;;;1.13;;
16199;SDS011;8207;52.494;4.654;2023-04-03T11:11:09;2.60;;;0.97;;
16199;SDS011;8207;52.494;4.654;2023-04-03T11:13:43;0.97;;;0.70;;
16199;SDS011;8207;52.494;4.654;2023-04-03T11:16:14;1.83;;;0.73;;
16199;SDS011;8207;52.494;4.654;2023-04-03T11:18:44;1.20;;;1.00;;
16199;SDS011;8207;52.494;4.654;2023-04-03T11:21:16;2.17;;;0.93;;
16199;SDS011;8207;52.494;4.654;2023-04-03T11:23:47;1.23;;;0.80;;
16199;SDS011;8207;52.494;4.654;2023-04-03T11:26:16;2.20;;;0.87;;
16199;SDS011;8207;52.494;4.654;2023-04-03T11:28:47;1.50;;;0.97;;
16199;SDS011;8207;52.494;4.654;2023-04-03T11:31:25;1.33;;;0.80;;
16199;SDS011;8207;52.494;4.654;2023-04-03T11:34:13;1.73;;;0.80;;
16199;SDS011;8207;52.494;4.654;2023-04-03T11:36:49;1.73;;;0.87;;
16199;SDS011;8207;52.494;4.654;2023-04-03T11:39:20;2.77;;;1.10;;
16199;SDS011;8207;52.494;4.654;2023-04-03T11:41:49;1.87;;;0.83;;
16199;SDS011;8207;52.494;4.654;2023-04-03T11:44:30;1.27;;;0.80;;
16199;SDS011;8207;52.494;4.654;2023-04-03T11:47:02;3.50;;;1.00;;
16199;SDS011;8207;52.494;4.654;2023-04-03T11:58:19;6.27;;;0.60;;
16199;SDS011;8207;52.494;4.654;2023-04-03T12:00:53;2.53;;;0.90;;
16199;SDS011;8207;52.494;4.654;2023-04-03T12:12:29;1.37;;;0.80;;
16199;SDS011;8207;52.494;4.654;2023-04-03T12:15:11;1.93;;;0.63;;
16199;SDS011;8207;52.494;4.654;2023-04-03T12:17:47;2.63;;;0.83;;
16199;SDS011;8207;52.494;4.654;2023-04-03T12:23:30;1.37;;;0.70;;
16199;SDS011;8207;52.494;4.654;2023-04-03T12:26:00;1.13;;;0.80;;
16199;SDS011;8207;52.494;4.654;2023-04-03T12:28:39;1.33;;;0.90;;
16199;SDS011;8207;52.494;4.654;2023-04-03T12:31:06;1.00;;;0.60;;
16199;SDS011;8207;52.494;4.654;2023-04-03T12:33:42;1.73;;;0.80;;
16199;SDS011;8207;52.494;4.654;2023-04-03T12:36:26;3.13;;;0.90;;
16199;SDS011;8207;52.494;4.654;2023-04-03T12:39:01;1.23;;;0.70;;
16199;SDS011;8207;52.494;4.654;2023-04-03T12:41:41;2.47;;;1.00;;
16199;SDS011;8207;52.494;4.654;2023-04-03T12:44:24;1.63;;;0.87;;
16199;SDS011;8207;52.494;4.654;2023-04-03T12:47:04;0.90;;;0.80;;
16199;SDS011;8207;52.494;4.654;2023-04-03T12:49:44;1.67;;;0.63;;
16199;SDS011;8207;52.494;4.654;2023-04-03T12:52:17;1.77;;;1.00;;
16199;SDS011;8207;52.494;4.654;2023-04-03T12:54:47;3.20;;;0.90;;
16199;SDS011;8207;52.494;4.654;2023-04-03T12:57:16;2.03;;;0.90;;
16199;SDS011;8207;52.494;4.654;2023-04-03T12:59:44;2.13;;;0.83;;
16199;SDS011;8207;52.494;4.654;2023-04-03T13:02:22;1.93;;;0.80;;
16199;SDS011;8207;52.494;4.654;2023-04-03T13:04:53;0.90;;;0.70;;
16199;SDS011;8207;52.494;4.654;2023-04-03T13:07:24;3.03;;;1.10;;
16199;SDS011;8207;52.494;4.654;2023-04-03T13:09:56;1.03;;;0.70;;
16199;SDS011;8207;52.494;4.654;2023-04-03T13:12:25;1.33;;;0.80;;
16199;SDS011;8207;52.494;4.654;2023-04-03T13:14:53;1.70;;;0.83;;
16199;SDS011;8207;52.494;4.654;2023-04-03T13:17:22;3.63;;;1.10;;
16199;SDS011;8207;52.494;4.654;2023-04-03T13:19:49;4.53;;;0.87;;
16199;SDS011;8207;52.494;4.654;2023-04-03T13:22:25;1.93;;;0.97;;
16199;SDS011;8207;52.494;4.654;2023-04-03T13:24:55;3.73;;;1.83;;
16199;SDS011;8207;52.494;4.654;2023-04-03T13:27:26;1.57;;;0.83;;
16199;SDS011;8207;52.494;4.654;2023-04-03T13:29:57;2.77;;;0.90;;
16199;SDS011;8207;52.494;4.654;2023-04-03T13:32:26;1.93;;;0.80;;
16199;SDS011;8207;52.494;4.654;2023-04-03T13:34:57;1.40;;;0.90;;
16199;SDS011;8207;52.494;4.654;2023-04-03T13:37:28;1.63;;;0.80;;
16199;SDS011;8207;52.494;4.654;2023-04-03T13:40:00;1.33;;;0.83;;
16199;SDS011;8207;52.494;4.654;2023-04-03T13:42:30;1.97;;;1.10;;
16199;SDS011;8207;52.494;4.654;2023-04-03T13:45:09;1.17;;;0.90;;
16199;SDS011;8207;52.494;4.654;2023-04-03T13:47:43;3.37;;;1.00;;
16199;SDS011;8207;52.494;4.654;2023-04-03T13:50:15;1.37;;;0.80;;
16199;SDS011;8207;52.494;4.654;2023-04-03T13:52:49;3.10;;;1.33;;
16199;SDS011;8207;52.494;4.654;2023-04-03T13:55:20;4.97;;;1.33;;
16199;SDS011;8207;52.494;4.654;2023-04-03T13:57:50;2.17;;;1.10;;
16199;SDS011;8207;52.494;4.654;2023-04-03T14:00:19;1.77;;;1.10;;
16199;SDS011;8207;52.494;4.654;2023-04-03T14:02:48;4.60;;;1.53;;
16199;SDS011;8207;52.494;4.654;2023-04-03T14:05:15;2.43;;;1.33;;
16199;SDS011;8207;52.494;4.654;2023-04-03T14:07:46;2.23;;;0.90;;
16199;SDS011;8207;52.494;4.654;2023-04-03T14:10:14;3.47;;;1.00;;
16199;SDS011;8207;52.494;4.654;2023-04-03T14:12:41;1.20;;;1.00;;
16199;SDS011;8207;52.494;4.654;2023-04-03T14:15:14;2.50;;;1.00;;
16199;SDS011;8207;52.494;4.654;2023-04-03T14:17:44;2.63;;;1.17;;
16199;SDS011;8207;52.494;4.654;2023-04-03T14:20:14;4.10;;;1.33;;
16199;SDS011;8207;52.494;4.654;2023-04-03T14:22:42;2.83;;;1.23;;
16199;SDS011;8207;52.494;4.654;2023-04-03T14:25:09;2.83;;;1.33;;
16199;SDS011;8207;52.494;4.654;2023-04-03T14:27:39;2.30;;;1.03;;
16199;SDS011;8207;52.494;4.654;2023-04-03T14:30:09;1.10;;;1.00;;
16199;SDS011;8207;52.494;4.654;2023-04-03T14:32:40;4.47;;;1.03;;
16199;SDS011;8207;52.494;4.654;2023-04-03T14:35:08;1.63;;;0.97;;
16199;SDS011;8207;52.494;4.654;2023-04-03T14:37:35;2.30;;;1.30;;
16199;SDS011;8207;52.494;4.654;2023-04-03T14:40:02;2.20;;;1.13;;
16199;SDS011;8207;52.494;4.654;2023-04-03T14:42:32;2.40;;;1.20;;
16199;SDS011;8207;52.494;4.654;2023-04-03T14:45:03;2.70;;;1.03;;
16199;SDS011;8207;52.494;4.654;2023-04-03T14:47:32;2.60;;;1.10;;
16199;SDS011;8207;52.494;4.654;2023-04-03T14:49:59;2.87;;;1.43;;
16199;SDS011;8207;52.494;4.654;2023-04-03T14:52:29;1.90;;;1.30;;
16199;SDS011;8207;52.494;4.654;2023-04-03T14:54:57;2.60;;;1.57;;
16199;SDS011;8207;52.494;4.654;2023-04-03T14:57:26;2.87;;;1.10;;
16199;SDS011;8207;52.494;4.654;2023-04-03T14:59:54;2.97;;;1.40;;
16199;SDS011;8207;52.494;4.654;2023-04-03T15:02:27;2.30;;;1.53;;
16199;SDS011;8207;52.494;4.654;2023-04-03T15:04:55;2.80;;;1.50;;
16199;SDS011;8207;52.494;4.654;2023-04-03T15:07:23;1.93;;;1.43;;
16199;SDS011;8207;52.494;4.654;2023-04-03T15:09:51;2.23;;;1.10;;
16199;SDS011;8207;52.494;4.654;2023-04-03T15:12:21;4.50;;;2.13;;
16199;SDS011;8207;52.494;4.654;2023-04-03T15:14:48;3.60;;;1.30;;
16199;SDS011;8207;52.494;4.654;2023-04-03T15:17:18;3.17;;;1.40;;
16199;SDS011;8207;52.494;4.654;2023-04-03T15:19:52;2.63;;;1.40;;
16199;SDS011;8207;52.494;4.654;2023-04-03T15:22:24;2.27;;;1.20;;
16199;SDS011;8207;52.494;4.654;2023-04-03T15:24:51;2.63;;;1.30;;
16199;SDS011;8207;52.494;4.654;2023-04-03T15:27:18;3.33;;;1.23;;
16199;SDS011;8207;52.494;4.654;2023-04-03T15:29:45;4.10;;;1.27;;
16199;SDS011;8207;52.494;4.654;2023-04-03T15:32:12;3.50;;;1.30;;
16199;SDS011;8207;52.494;4.654;2023-04-03T15:34:39;2.03;;;1.23;;
16199;SDS011;8207;52.494;4.654;2023-04-03T15:37:08;2.63;;;1.50;;
16199;SDS011;8207;52.494;4.654;2023-04-03T15:39:35;2.43;;;1.20;;
16199;SDS011;8207;52.494;4.654;2023-04-03T15:42:02;2.97;;;1.40;;